createdAt,value
2023-06-14T00:00:35.302Z,2.22
2023-06-14T00:03:02.121Z,1.90
2023-06-14T00:05:30.784Z,1.70
2023-06-14T00:07:57.428Z,2.00
2023-06-14T00:10:24.016Z,2.10
2023-06-14T00:12:50.541Z,2.08
2023-06-14T00:15:17.205Z,1.98
2023-06-14T00:17:45.913Z,1.73
2023-06-14T00:20:12.382Z,1.65
2023-06-14T00:22:39.736Z,1.90
2023-06-14T00:25:19.315Z,2.00
2023-06-14T00:27:57.612Z,2.28
2023-06-14T00:30:24.616Z,1.73
2023-06-14T00:32:52.449Z,1.80
2023-06-14T00:35:19.143Z,1.77
2023-06-14T00:37:45.537Z,1.92
2023-06-14T00:40:12.063Z,1.95
2023-06-14T00:42:38.675Z,1.92
2023-06-14T00:45:05.594Z,2.17
2023-06-14T00:47:32.207Z,1.73
2023-06-14T00:49:59.955Z,2.25
2023-06-14T00:52:26.393Z,2.10
2023-06-14T00:54:53.015Z,2.00
2023-06-14T00:57:21.970Z,2.03
2023-06-14T00:59:49.784Z,1.67
2023-06-14T01:02:16.852Z,1.90
2023-06-14T01:04:46.547Z,2.00
2023-06-14T01:07:21.850Z,2.05
2023-06-14T01:10:16.495Z,1.67
2023-06-14T01:12:52.795Z,1.80
2023-06-14T01:15:21.765Z,1.95
2023-06-14T01:17:52.689Z,1.92
2023-06-14T01:20:22.894Z,1.80
2023-06-14T01:22:53.732Z,2.05
2023-06-14T01:25:24.103Z,1.90
2023-06-14T01:27:53.694Z,1.80
2023-06-14T01:30:22.233Z,1.83
2023-06-14T01:32:51.285Z,1.83
2023-06-14T01:35:17.918Z,2.28
2023-06-14T01:37:47.846Z,1.95
2023-06-14T01:40:16.426Z,2.00
2023-06-14T01:42:44.347Z,1.80
2023-06-14T01:45:11.656Z,2.25
2023-06-14T01:47:38.317Z,2.63
2023-06-14T01:50:05.378Z,1.98
2023-06-14T01:52:31.863Z,2.20
2023-06-14T01:54:58.864Z,2.13
2023-06-14T01:57:27.691Z,2.00
2023-06-14T01:59:54.314Z,2.00
2023-06-14T02:02:20.688Z,2.20
2023-06-14T02:04:48.415Z,1.90
2023-06-14T02:07:15.485Z,2.15
2023-06-14T02:09:42.644Z,1.80
2023-06-14T02:12:09.795Z,1.92
2023-06-14T02:14:36.188Z,1.95
2023-06-14T02:17:02.850Z,1.98
2023-06-14T02:19:29.504Z,2.65
2023-06-14T02:21:55.897Z,1.95
2023-06-14T02:24:22.525Z,1.88
2023-06-14T02:26:49.305Z,1.92
2023-06-14T02:29:16.040Z,2.55
2023-06-14T02:31:42.824Z,2.05
2023-06-14T02:34:11.863Z,1.95
2023-06-14T02:36:42.612Z,2.13
2023-06-14T02:39:14.645Z,1.80
2023-06-14T02:41:41.074Z,2.38
2023-06-14T02:44:07.800Z,2.25
2023-06-14T02:46:34.259Z,2.22
2023-06-14T02:49:01.108Z,1.73
2023-06-14T02:51:27.582Z,2.13
2023-06-14T02:53:54.028Z,2.25
2023-06-14T02:56:20.562Z,2.17
2023-06-14T02:58:47.207Z,2.58
2023-06-14T03:01:15.043Z,2.00
2023-06-14T03:03:41.514Z,2.35
2023-06-14T03:06:09.140Z,2.03
2023-06-14T03:08:39.735Z,1.95
2023-06-14T03:11:06.699Z,2.10
2023-06-14T03:13:33.517Z,2.63
2023-06-14T03:16:00.495Z,2.10
2023-06-14T03:18:28.236Z,2.13
2023-06-14T03:20:55.041Z,2.38
2023-06-14T03:23:22.383Z,2.10
2023-06-14T03:25:48.849Z,2.22
2023-06-14T03:28:15.483Z,2.00
2023-06-14T03:30:42.010Z,2.20
2023-06-14T03:33:09.652Z,2.40
2023-06-14T03:35:36.177Z,1.98
2023-06-14T03:38:03.658Z,2.30
2023-06-14T03:40:30.321Z,2.20
2023-06-14T03:42:56.775Z,2.22
2023-06-14T03:45:23.190Z,2.40
2023-06-14T03:47:49.699Z,2.50
2023-06-14T03:50:16.472Z,2.10
2023-06-14T03:52:44.670Z,2.45
2023-06-14T03:57:41.410Z,2.33
2023-06-14T04:00:10.731Z,2.28
2023-06-14T04:02:37.594Z,2.30
2023-06-14T04:05:05.008Z,2.10
2023-06-14T04:07:31.498Z,2.38
2023-06-14T04:09:57.972Z,1.85
2023-06-14T04:12:24.340Z,2.20
2023-06-14T04:14:50.959Z,2.38
2023-06-14T04:17:17.352Z,2.50
2023-06-14T04:19:43.778Z,2.25
2023-06-14T04:22:11.700Z,2.53
2023-06-14T04:24:38.072Z,2.15
2023-06-14T04:27:04.845Z,2.30
2023-06-14T04:29:32.369Z,2.85
2023-06-14T04:32:02.574Z,2.03
2023-06-14T04:34:30.657Z,2.35
2023-06-14T04:36:57.473Z,2.30
2023-06-14T04:39:24.040Z,2.65
2023-06-14T04:41:57.591Z,2.28
2023-06-14T04:44:30.801Z,2.53
2023-06-14T04:49:28.512Z,2.38
2023-06-14T04:52:00.273Z,2.53
2023-06-14T04:54:26.752Z,2.22
2023-06-14T04:56:54.207Z,2.20
2023-06-14T04:59:20.830Z,2.72
2023-06-14T05:01:49.944Z,2.22
2023-06-14T05:04:17.248Z,2.67
2023-06-14T05:06:49.069Z,2.45
2023-06-14T05:09:17.556Z,2.92
2023-06-14T05:11:45.006Z,2.33
2023-06-14T05:14:12.177Z,2.28
2023-06-14T05:16:41.596Z,2.40
2023-06-14T05:19:08.102Z,2.30
2023-06-14T05:21:42.328Z,2.35
2023-06-14T05:24:10.388Z,2.22
2023-06-14T05:26:36.914Z,2.90
2023-06-14T05:29:03.808Z,2.47
2023-06-14T05:31:30.222Z,2.03
2023-06-14T05:33:56.777Z,2.10
2023-06-14T05:36:23.481Z,2.70
2023-06-14T05:38:49.955Z,2.30
2023-06-14T05:41:16.351Z,2.10
2023-06-14T05:43:42.767Z,2.20
2023-06-14T05:46:09.119Z,2.30
2023-06-14T05:48:35.619Z,2.88
2023-06-14T05:51:02.040Z,2.47
2023-06-14T05:53:28.466Z,2.50
2023-06-14T05:55:55.949Z,2.30
2023-06-14T05:58:23.068Z,2.58
2023-06-14T06:00:49.502Z,2.53
2023-06-14T06:03:15.945Z,2.53
2023-06-14T06:05:42.470Z,2.40
2023-06-14T06:08:08.861Z,2.10
2023-06-14T06:10:35.459Z,2.30
2023-06-14T06:13:01.815Z,2.30
2023-06-14T06:15:28.203Z,2.45
2023-06-14T06:17:56.511Z,2.25
2023-06-14T06:20:31.096Z,2.55
2023-06-14T06:23:00.642Z,2.15
2023-06-14T06:25:32.746Z,2.30
2023-06-14T06:27:59.202Z,2.43
2023-06-14T06:30:26.167Z,2.60
2023-06-14T06:32:53.034Z,2.38
2023-06-14T06:35:19.798Z,2.33
2023-06-14T06:37:46.173Z,2.40
2023-06-14T06:40:13.220Z,2.47
2023-06-14T06:42:39.611Z,2.10
2023-06-14T06:45:06.941Z,1.70
2023-06-14T06:47:33.406Z,1.88
2023-06-14T06:49:59.838Z,2.00
2023-06-14T06:52:26.225Z,1.90
2023-06-14T06:54:55.865Z,2.00
2023-06-14T06:57:23.745Z,2.10
2023-06-14T06:59:50.772Z,1.83
2023-06-14T07:02:17.888Z,1.63
2023-06-14T07:04:44.344Z,2.00
2023-06-14T07:07:10.902Z,2.00
2023-06-14T07:09:37.738Z,2.03
2023-06-14T07:12:04.504Z,1.70
2023-06-14T07:14:31.171Z,1.50
2023-06-14T07:16:57.548Z,1.58
2023-06-14T07:19:23.931Z,1.30
2023-06-14T07:21:50.375Z,1.38
2023-06-14T07:24:16.876Z,1.45
2023-06-14T07:26:43.480Z,1.90
2023-06-14T07:29:09.848Z,1.42
2023-06-14T07:31:36.253Z,1.30
2023-06-14T07:34:03.165Z,1.60
2023-06-14T07:36:29.578Z,1.27
2023-06-14T07:38:56.191Z,1.42
2023-06-14T07:41:22.877Z,1.50
2023-06-14T07:43:52.594Z,1.65
2023-06-14T07:46:19.323Z,1.55
2023-06-14T07:48:45.799Z,1.52
2023-06-14T07:51:12.261Z,1.50
2023-06-14T07:53:38.624Z,1.60
2023-06-14T07:56:05.070Z,1.70
2023-06-14T07:58:31.450Z,1.55
2023-06-14T08:00:57.850Z,1.80
2023-06-14T08:03:25.037Z,1.42
2023-06-14T08:05:51.845Z,1.80
2023-06-14T08:08:18.229Z,1.50
2023-06-14T08:10:45.319Z,1.77
2023-06-14T08:13:11.697Z,1.52
2023-06-14T08:15:38.067Z,1.42
2023-06-14T08:18:04.486Z,1.38
2023-06-14T08:20:33.036Z,1.60
2023-06-14T08:22:59.641Z,1.48
2023-06-14T08:25:26.878Z,1.65
2023-06-14T08:27:53.567Z,1.27
2023-06-14T08:30:20.133Z,1.17
2023-06-14T08:32:47.297Z,1.48
2023-06-14T08:35:16.998Z,1.30
2023-06-14T08:37:43.456Z,1.20
2023-06-14T08:40:18.307Z,1.20
2023-06-14T08:42:46.575Z,1.10
2023-06-14T08:45:13.395Z,1.02
2023-06-14T08:47:41.848Z,1.00
2023-06-14T08:50:19.480Z,0.90
2023-06-14T08:53:02.944Z,1.00
2023-06-14T08:55:33.976Z,0.90
2023-06-14T08:58:04.203Z,1.10
2023-06-14T09:00:31.698Z,1.00
2023-06-14T09:03:00.830Z,0.88
2023-06-14T09:05:28.354Z,0.93
2023-06-14T09:08:04.068Z,1.38
2023-06-14T09:10:39.565Z,1.13
2023-06-14T09:13:06.419Z,1.25
2023-06-14T09:15:33.426Z,1.08
2023-06-14T09:18:02.354Z,1.30
2023-06-14T09:20:31.132Z,1.23
2023-06-14T09:22:57.930Z,1.02
2023-06-14T09:25:38.020Z,1.13
2023-06-14T09:28:07.940Z,1.10
2023-06-14T09:30:34.345Z,0.98
2023-06-14T09:33:02.266Z,1.08
2023-06-14T09:35:31.958Z,1.20
2023-06-14T09:37:58.393Z,1.05
2023-06-14T09:40:25.292Z,0.88
2023-06-14T09:42:53.150Z,1.33
2023-06-14T09:45:22.613Z,1.10
2023-06-14T09:48:06.143Z,1.40
2023-06-14T09:50:34.010Z,1.05
2023-06-14T09:53:06.975Z,0.98
2023-06-14T09:58:06.799Z,1.00
2023-06-14T10:00:35.661Z,0.98
2023-06-14T10:03:11.551Z,0.98
2023-06-14T10:05:38.579Z,1.20
2023-06-14T10:08:19.607Z,0.95
2023-06-14T10:10:46.215Z,1.30
2023-06-14T10:13:13.830Z,1.52
2023-06-14T10:15:59.269Z,1.00
2023-06-14T10:18:41.417Z,1.35
2023-06-14T10:21:29.995Z,1.50
2023-06-14T10:24:01.431Z,1.17
2023-06-14T10:26:28.366Z,1.48
2023-06-14T10:29:08.226Z,0.80
2023-06-14T10:31:45.433Z,1.00
2023-06-14T10:34:28.739Z,1.10
2023-06-14T10:37:05.655Z,0.90
2023-06-14T10:39:33.482Z,0.98
2023-06-14T10:42:02.780Z,1.00
2023-06-14T10:44:29.785Z,0.90
2023-06-14T10:46:59.010Z,1.10
2023-06-14T10:49:46.541Z,1.30
2023-06-14T10:52:18.259Z,1.02
2023-06-14T10:55:11.996Z,0.90
2023-06-14T10:57:51.600Z,1.15
2023-06-14T11:00:23.765Z,1.10
2023-06-14T11:03:12.090Z,0.88
2023-06-14T11:05:55.994Z,0.98
2023-06-14T11:11:07.836Z,1.10
2023-06-14T11:13:34.606Z,1.20
2023-06-14T11:16:01.381Z,1.10
2023-06-14T11:18:29.741Z,0.80
2023-06-14T11:20:56.499Z,0.70
2023-06-14T11:23:24.518Z,0.80
2023-06-14T11:25:54.233Z,1.00
2023-06-14T11:28:22.807Z,0.70
2023-06-14T11:31:02.755Z,0.98
2023-06-14T11:33:29.490Z,0.95
2023-06-14T11:35:56.181Z,0.98
2023-06-14T11:38:22.854Z,0.88
2023-06-14T11:40:49.453Z,0.88
2023-06-14T11:43:16.341Z,0.80
2023-06-14T11:45:43.024Z,0.88
2023-06-14T11:48:11.081Z,0.93
2023-06-14T11:50:39.728Z,1.00
2023-06-14T11:53:11.480Z,0.95
2023-06-14T11:55:42.454Z,0.68
2023-06-14T11:58:09.506Z,0.90
2023-06-14T12:00:38.138Z,0.70
2023-06-14T12:03:04.897Z,0.70
2023-06-14T12:05:31.669Z,0.68
2023-06-14T12:08:04.004Z,0.82
2023-06-14T12:13:01.063Z,0.80
2023-06-14T12:15:31.131Z,0.88
2023-06-14T12:17:59.295Z,0.60
2023-06-14T12:20:31.266Z,0.90
2023-06-14T12:23:01.650Z,0.98
2023-06-14T12:25:35.192Z,0.73
2023-06-14T12:28:07.399Z,0.73
2023-06-14T12:30:34.761Z,0.80
2023-06-14T12:33:03.421Z,0.70
2023-06-14T12:35:31.029Z,0.82
2023-06-14T12:37:57.647Z,0.95
2023-06-14T12:40:24.842Z,0.90
2023-06-14T12:42:51.614Z,0.90
2023-06-14T12:45:18.718Z,0.70
2023-06-14T12:47:45.986Z,0.90
2023-06-14T12:50:12.842Z,0.90
2023-06-14T12:52:39.586Z,0.75
2023-06-14T12:55:06.884Z,0.95
2023-06-14T12:57:33.618Z,0.90
2023-06-14T13:00:01.540Z,0.70
2023-06-14T13:02:28.283Z,0.98
2023-06-14T13:04:55.174Z,0.90
2023-06-14T13:07:21.840Z,0.88
2023-06-14T13:09:48.454Z,0.90
2023-06-14T13:12:15.061Z,0.80
2023-06-14T13:14:42.119Z,0.80
2023-06-14T13:17:12.235Z,0.80
2023-06-14T13:19:38.872Z,0.88
2023-06-14T13:22:06.080Z,0.80
2023-06-14T13:24:32.851Z,0.68
2023-06-14T13:26:59.585Z,1.30
2023-06-14T13:29:27.561Z,0.70
2023-06-14T13:31:56.951Z,1.00
2023-06-14T13:34:23.567Z,0.90
2023-06-14T13:36:51.081Z,0.70
2023-06-14T13:39:17.756Z,0.90
2023-06-14T13:41:44.558Z,0.75
2023-06-14T13:44:16.894Z,0.80
2023-06-14T13:46:44.182Z,0.88
2023-06-14T13:49:11.333Z,0.80
2023-06-14T13:51:37.886Z,0.90
2023-06-14T13:54:04.679Z,0.90
2023-06-14T13:56:31.724Z,1.10
2023-06-14T13:58:58.366Z,0.90
2023-06-14T14:01:26.731Z,1.08
2023-06-14T14:03:53.520Z,0.70
2023-06-14T14:06:20.235Z,0.80
2023-06-14T14:08:46.786Z,0.88
2023-06-14T14:11:14.683Z,1.35
2023-06-14T14:13:41.521Z,1.00
2023-06-14T14:16:08.308Z,1.40
2023-06-14T14:18:35.098Z,0.90
2023-06-14T14:21:01.961Z,0.85
2023-06-14T14:23:28.988Z,1.02
2023-06-14T14:25:55.883Z,0.98
2023-06-14T14:28:22.488Z,0.98
2023-06-14T14:30:49.009Z,1.17
2023-06-14T14:33:18.093Z,0.98
2023-06-14T14:35:48.501Z,1.05
2023-06-14T14:38:18.618Z,1.05
2023-06-14T14:40:45.836Z,0.80
2023-06-14T14:43:12.489Z,0.80
2023-06-14T14:45:39.136Z,1.35
2023-06-14T14:48:06.281Z,1.02
2023-06-14T14:50:33.858Z,1.15
2023-06-14T14:53:00.602Z,1.00
2023-06-14T14:55:27.242Z,1.20
2023-06-14T14:57:54.152Z,1.30
2023-06-14T15:00:21.052Z,0.90
2023-06-14T15:02:47.762Z,1.20
2023-06-14T15:05:14.608Z,0.95
2023-06-14T15:07:41.578Z,1.13
2023-06-14T15:10:09.443Z,1.20
2023-06-14T15:12:36.630Z,1.20
2023-06-14T15:15:03.736Z,1.20
2023-06-14T15:17:30.980Z,1.10
2023-06-14T15:19:57.669Z,1.20
2023-06-14T15:22:24.247Z,1.60
2023-06-14T15:24:51.004Z,1.20
2023-06-14T15:27:17.654Z,1.88
2023-06-14T15:29:45.807Z,1.08
2023-06-14T15:32:13.626Z,1.27
2023-06-14T15:34:40.569Z,1.10
2023-06-14T15:37:08.565Z,1.30
2023-06-14T15:39:35.699Z,1.30
2023-06-14T15:42:02.497Z,1.13
2023-06-14T15:44:29.129Z,1.30
2023-06-14T15:46:56.018Z,1.58
2023-06-14T15:49:22.643Z,1.90
2023-06-14T15:51:49.183Z,2.33
2023-06-14T15:54:15.926Z,1.67
2023-06-14T15:56:42.561Z,1.40
2023-06-14T15:59:09.113Z,1.70
2023-06-14T16:01:36.217Z,1.40
2023-06-14T16:04:03.043Z,1.30
2023-06-14T16:06:29.637Z,1.10
2023-06-14T16:08:56.207Z,1.23
2023-06-14T16:11:22.836Z,1.20
2023-06-14T16:13:49.302Z,1.27
2023-06-14T16:16:16.002Z,1.52
2023-06-14T16:18:42.568Z,1.35
2023-06-14T16:21:11.477Z,1.30
2023-06-14T16:23:38.365Z,1.55
2023-06-14T16:26:05.096Z,1.23
2023-06-14T16:28:35.412Z,1.52
2023-06-14T16:31:02.055Z,1.38
2023-06-14T16:33:28.658Z,2.33
2023-06-14T16:35:55.325Z,1.20
2023-06-14T16:38:22.750Z,1.30
2023-06-14T16:40:49.516Z,1.65
2023-06-14T16:43:16.417Z,1.50
2023-06-14T16:45:43.458Z,1.50
2023-06-14T16:48:10.321Z,1.58
2023-06-14T16:50:37.960Z,1.40
2023-06-14T16:53:05.122Z,1.48
2023-06-14T16:55:32.986Z,1.67
2023-06-14T16:57:59.630Z,1.60
2023-06-14T17:00:27.299Z,1.70
2023-06-14T17:02:57.231Z,1.65
2023-06-14T17:05:23.944Z,1.60
2023-06-14T17:07:50.606Z,1.80
2023-06-14T17:10:17.295Z,1.60
2023-06-14T17:12:43.931Z,1.70
2023-06-14T17:15:11.083Z,1.67
2023-06-14T17:17:37.570Z,1.80
2023-06-14T17:20:05.351Z,1.73
2023-06-14T17:22:31.948Z,2.17
2023-06-14T17:24:58.780Z,2.00
2023-06-14T17:27:25.484Z,2.03
2023-06-14T17:29:51.957Z,1.90
2023-06-14T17:32:18.443Z,1.90
2023-06-14T17:34:44.956Z,1.73
2023-06-14T17:37:11.477Z,2.08
2023-06-14T17:39:40.303Z,1.77
2023-06-14T17:42:07.186Z,1.90
2023-06-14T17:44:33.664Z,1.90
2023-06-14T17:47:00.256Z,2.15
2023-06-14T17:49:27.464Z,1.75
2023-06-14T17:51:53.979Z,2.10
2023-06-14T17:54:20.471Z,1.80
2023-06-14T17:56:47.492Z,2.03
2023-06-14T17:59:13.857Z,2.22
2023-06-14T18:01:40.301Z,1.92
2023-06-14T18:04:06.713Z,1.73
2023-06-14T18:06:33.309Z,2.30
2023-06-14T18:09:00.815Z,1.90
2023-06-14T18:11:28.501Z,2.10
2023-06-14T18:13:54.856Z,2.10
2023-06-14T18:16:21.309Z,2.22
2023-06-14T18:18:49.566Z,2.20
2023-06-14T18:21:15.939Z,2.55
2023-06-14T18:23:42.375Z,2.08
2023-06-14T18:26:08.785Z,2.22
2023-06-14T18:28:36.966Z,2.20
2023-06-14T18:31:03.585Z,1.92
2023-06-14T18:33:30.037Z,2.25
2023-06-14T18:35:56.434Z,2.10
2023-06-14T18:38:22.831Z,2.03
2023-06-14T18:40:52.443Z,2.13
2023-06-14T18:43:19.655Z,2.05
2023-06-14T18:45:46.237Z,2.33
2023-06-14T18:48:12.731Z,2.10
2023-06-14T18:50:39.324Z,1.95
2023-06-14T18:53:05.744Z,2.00
2023-06-14T18:55:32.230Z,2.10
2023-06-14T18:57:58.597Z,2.53
2023-06-14T19:00:25.830Z,2.50
2023-06-14T19:02:52.316Z,2.40
2023-06-14T19:05:20.440Z,2.65
2023-06-14T19:07:49.375Z,2.40
2023-06-14T19:10:15.859Z,2.30
2023-06-14T19:12:42.609Z,2.30
2023-06-14T19:15:09.599Z,2.33
2023-06-14T19:17:36.035Z,2.40
2023-06-14T19:20:02.613Z,2.35
2023-06-14T19:22:29.001Z,2.30
2023-06-14T19:24:55.339Z,2.65
2023-06-14T19:27:21.705Z,2.38
2023-06-14T19:29:48.054Z,2.42
2023-06-14T19:32:14.570Z,2.50
2023-06-14T19:34:45.010Z,2.42
2023-06-14T19:37:11.979Z,2.53
2023-06-14T19:39:38.434Z,2.25
2023-06-14T19:42:06.089Z,2.22
2023-06-14T19:44:32.470Z,2.25
2023-06-14T19:46:58.837Z,2.53
2023-06-14T19:49:25.248Z,2.58
2023-06-14T19:51:51.612Z,2.92
2023-06-14T19:54:18.166Z,2.80
2023-06-14T19:56:46.101Z,2.78
2023-06-14T19:59:12.540Z,2.38
2023-06-14T20:01:38.926Z,2.50
2023-06-14T20:04:05.411Z,2.63
2023-06-14T20:06:31.955Z,2.42
2023-06-14T20:08:58.315Z,2.47
2023-06-14T20:11:24.691Z,2.80
2023-06-14T20:13:51.020Z,2.42
2023-06-14T20:16:17.549Z,2.50
2023-06-14T20:18:44.006Z,2.20
2023-06-14T20:21:10.479Z,2.13
2023-06-14T20:23:38.628Z,2.22
2023-06-14T20:26:05.176Z,2.33
2023-06-14T20:28:32.593Z,2.55
2023-06-14T20:30:58.971Z,2.30
2023-06-14T20:33:25.383Z,2.30
2023-06-14T20:35:51.813Z,2.90
2023-06-14T20:38:20.941Z,2.50
2023-06-14T20:40:49.605Z,2.67
2023-06-14T20:43:16.735Z,2.35
2023-06-14T20:45:43.086Z,2.22
2023-06-14T20:48:09.621Z,2.40
2023-06-14T20:50:36.089Z,2.45
2023-06-14T20:53:02.608Z,2.60
2023-06-14T20:55:29.318Z,2.50
2023-06-14T20:57:56.846Z,3.15
2023-06-14T21:00:23.228Z,2.60
2023-06-14T21:02:49.597Z,2.78
2023-06-14T21:05:16.271Z,2.55
2023-06-14T21:07:43.577Z,2.33
2023-06-14T21:10:10.581Z,2.72
2023-06-14T21:12:36.929Z,2.35
2023-06-14T21:15:03.569Z,2.33
2023-06-14T21:17:30.070Z,2.75
2023-06-14T21:19:56.527Z,2.78
2023-06-14T21:22:22.894Z,2.67
2023-06-14T21:24:49.272Z,2.55
2023-06-14T21:27:15.637Z,2.47
2023-06-14T21:29:42.295Z,2.67
2023-06-14T21:32:09.596Z,2.55
2023-06-14T21:34:36.056Z,3.40
2023-06-14T21:37:02.423Z,2.70
2023-06-14T21:39:28.854Z,2.92
2023-06-14T21:41:55.686Z,2.55
2023-06-14T21:44:22.578Z,3.15
2023-06-14T21:46:49.128Z,2.60
2023-06-14T21:49:15.617Z,2.85
2023-06-14T21:51:42.187Z,2.80
2023-06-14T21:54:10.389Z,2.85
2023-06-14T21:56:37.476Z,2.97
2023-06-14T21:59:04.072Z,2.90
2023-06-14T22:01:30.568Z,2.60
2023-06-14T22:03:56.990Z,2.67
2023-06-14T22:06:23.469Z,2.80
2023-06-14T22:08:50.148Z,2.63
2023-06-14T22:11:16.572Z,2.70
2023-06-14T22:13:44.504Z,2.60
2023-06-14T22:16:11.517Z,2.85
2023-06-14T22:18:38.100Z,2.78
2023-06-14T22:21:04.513Z,2.50
2023-06-14T22:23:37.018Z,3.00
2023-06-14T22:26:10.146Z,3.00
2023-06-14T22:28:39.768Z,2.92
2023-06-14T22:31:11.629Z,3.50
2023-06-14T22:33:46.243Z,2.92
2023-06-14T22:36:17.278Z,2.97
2023-06-14T22:38:46.190Z,3.25
2023-06-14T22:41:13.610Z,3.00
2023-06-14T22:43:42.860Z,3.10
2023-06-14T22:46:11.955Z,3.13
2023-06-14T22:48:50.711Z,3.03
2023-06-14T22:51:19.304Z,2.67
2023-06-14T22:53:45.912Z,3.00
2023-06-14T22:56:14.328Z,3.13
2023-06-14T22:58:42.592Z,3.35
2023-06-14T23:01:15.300Z,3.08
2023-06-14T23:06:09.397Z,3.00
2023-06-14T23:08:36.005Z,3.40
2023-06-14T23:13:38.556Z,3.42
2023-06-14T23:16:08.768Z,3.55
2023-06-14T23:18:37.049Z,3.17
2023-06-14T23:21:04.009Z,3.30
2023-06-14T23:23:30.753Z,2.70
2023-06-14T23:25:57.599Z,3.20
2023-06-14T23:28:24.077Z,3.20
2023-06-14T23:30:51.880Z,2.80
2023-06-14T23:33:18.286Z,3.45
2023-06-14T23:35:44.637Z,3.17
2023-06-14T23:38:13.587Z,3.78
2023-06-14T23:40:40.242Z,3.47
2023-06-14T23:43:09.261Z,3.05
2023-06-14T23:45:35.950Z,2.95
2023-06-14T23:48:02.440Z,3.42
2023-06-14T23:50:29.224Z,2.97
2023-06-14T23:53:00.175Z,3.20
2023-06-14T23:55:30.537Z,3.60
2023-06-14T23:57:57.688Z,3.30
